createdAt,value
2023-01-10T00:01:57.630Z,0.50
2023-01-10T00:04:26.533Z,0.50
2023-01-10T00:06:53.329Z,0.40
2023-01-10T00:09:19.943Z,0.38
2023-01-10T00:12:05.081Z,0.40
2023-01-10T00:14:35.166Z,0.35
2023-01-10T00:17:04.958Z,0.30
2023-01-10T00:19:31.876Z,0.40
2023-01-10T00:22:02.722Z,0.45
2023-01-10T00:24:29.642Z,0.43
2023-01-10T00:26:56.567Z,0.40
2023-01-10T00:29:25.716Z,0.52
2023-01-10T00:31:52.382Z,0.50
2023-01-10T00:34:19.256Z,0.50
2023-01-10T00:36:47.986Z,0.63
2023-01-10T00:39:15.834Z,0.40
2023-01-10T00:42:01.382Z,0.60
2023-01-10T00:44:28.040Z,0.70
2023-01-10T00:46:54.924Z,0.60
2023-01-10T00:49:21.562Z,0.57
2023-01-10T00:51:48.302Z,0.52
2023-01-10T00:54:15.392Z,0.80
2023-01-10T00:56:42.098Z,0.60
2023-01-10T00:59:08.827Z,0.60
2023-01-10T01:01:35.903Z,0.82
2023-01-10T01:04:02.689Z,0.52
2023-01-10T01:06:29.500Z,0.68
2023-01-10T01:08:56.137Z,0.70
2023-01-10T01:11:22.883Z,0.70
2023-01-10T01:13:49.647Z,0.70
2023-01-10T01:16:16.816Z,0.80
2023-01-10T01:18:43.490Z,0.80
2023-01-10T01:21:10.188Z,0.80
2023-01-10T01:23:36.847Z,1.10
2023-01-10T01:26:03.590Z,0.80
2023-01-10T01:28:30.303Z,0.80
2023-01-10T01:30:56.958Z,0.90
2023-01-10T01:33:23.806Z,0.68
2023-01-10T01:35:50.755Z,0.90
2023-01-10T01:38:17.808Z,0.70
2023-01-10T01:40:45.295Z,0.80
2023-01-10T01:43:25.663Z,0.75
2023-01-10T01:45:53.072Z,0.93
2023-01-10T01:48:31.917Z,0.75
2023-01-10T01:51:07.910Z,0.60
2023-01-10T01:53:38.628Z,1.10
2023-01-10T01:56:13.825Z,0.80
2023-01-10T01:58:46.510Z,0.90
2023-01-10T02:01:14.412Z,1.10
2023-01-10T02:03:42.695Z,1.13
2023-01-10T02:06:09.392Z,0.70
2023-01-10T02:08:37.181Z,0.95
2023-01-10T02:11:06.526Z,0.90
2023-01-10T02:13:33.747Z,0.68
2023-01-10T02:16:00.870Z,0.70
2023-01-10T02:18:27.498Z,1.10
2023-01-10T02:21:15.876Z,1.08
2023-01-10T02:24:02.583Z,0.80
2023-01-10T02:26:47.737Z,0.90
2023-01-10T02:29:32.548Z,1.00
2023-01-10T02:32:40.731Z,0.82
2023-01-10T02:35:18.875Z,0.90
2023-01-10T02:37:58.070Z,0.82
2023-01-10T02:40:33.534Z,0.80
2023-01-10T02:43:06.923Z,0.80
2023-01-10T02:45:48.894Z,0.70
2023-01-10T02:48:16.863Z,0.88
2023-01-10T02:50:43.689Z,0.80
2023-01-10T02:53:16.577Z,0.80
2023-01-10T02:55:49.340Z,0.93
2023-01-10T02:58:27.302Z,0.95
2023-01-10T03:01:08.929Z,0.70
2023-01-10T03:03:38.456Z,1.05
2023-01-10T03:06:22.280Z,1.10
2023-01-10T03:08:59.339Z,0.95
2023-01-10T03:11:40.375Z,1.10
2023-01-10T03:14:16.663Z,1.05
2023-01-10T03:16:46.705Z,0.73
2023-01-10T03:19:15.685Z,1.00
2023-01-10T03:21:44.295Z,1.05
2023-01-10T03:24:14.143Z,0.95
2023-01-10T03:26:43.762Z,1.33
2023-01-10T03:29:11.939Z,1.30
2023-01-10T03:31:52.417Z,1.10
2023-01-10T03:34:19.712Z,1.08
2023-01-10T03:37:05.040Z,1.20
2023-01-10T03:39:41.322Z,1.20
2023-01-10T03:42:12.711Z,1.38
2023-01-10T03:44:45.395Z,1.17
2023-01-10T03:47:14.879Z,1.00
2023-01-10T03:49:43.045Z,1.60
2023-01-10T03:52:10.985Z,1.15
2023-01-10T03:54:37.613Z,1.85
2023-01-10T03:57:05.883Z,1.48
2023-01-10T03:59:32.510Z,1.27
2023-01-10T04:01:59.770Z,1.42
2023-01-10T04:04:26.812Z,1.63
2023-01-10T04:06:53.448Z,1.00
2023-01-10T04:09:20.159Z,1.20
2023-01-10T04:11:47.313Z,1.25
2023-01-10T04:14:13.943Z,1.40
2023-01-10T04:16:40.629Z,1.17
2023-01-10T04:19:07.287Z,1.25
2023-01-10T04:21:33.924Z,1.30
2023-01-10T04:24:00.633Z,1.10
2023-01-10T04:26:27.284Z,1.50
2023-01-10T04:28:54.289Z,1.38
2023-01-10T04:31:22.801Z,1.10
2023-01-10T04:33:49.589Z,1.63
2023-01-10T04:36:16.215Z,1.10
2023-01-10T04:38:42.881Z,1.60
2023-01-10T04:41:09.863Z,1.30
2023-01-10T04:43:36.690Z,1.60
2023-01-10T04:46:03.929Z,1.10
2023-01-10T04:48:30.589Z,1.63
2023-01-10T04:50:57.291Z,1.40
2023-01-10T04:53:24.092Z,1.08
2023-01-10T04:55:50.864Z,1.33
2023-01-10T04:58:17.507Z,1.00
2023-01-10T05:00:44.187Z,1.52
2023-01-10T05:03:10.934Z,1.10
2023-01-10T05:05:37.530Z,1.00
2023-01-10T05:08:04.294Z,1.52
2023-01-10T05:10:30.934Z,1.42
2023-01-10T05:12:57.580Z,1.58
2023-01-10T05:15:24.297Z,1.38
2023-01-10T05:17:57.415Z,1.15
2023-01-10T05:20:24.126Z,1.50
2023-01-10T05:22:50.776Z,1.33
2023-01-10T05:25:17.394Z,2.10
2023-01-10T05:27:44.092Z,1.95
2023-01-10T05:30:11.831Z,1.45
2023-01-10T05:32:38.777Z,1.70
2023-01-10T05:35:06.427Z,1.80
2023-01-10T05:37:33.099Z,1.92
2023-01-10T05:39:59.926Z,1.45
2023-01-10T05:42:26.639Z,2.60
2023-01-10T05:44:53.381Z,1.77
2023-01-10T05:47:20.563Z,2.03
2023-01-10T05:49:47.286Z,1.17
2023-01-10T05:52:14.539Z,1.17
2023-01-10T05:54:41.276Z,1.40
2023-01-10T05:57:07.901Z,2.00
2023-01-10T05:59:34.646Z,1.35
2023-01-10T06:02:01.321Z,1.65
2023-01-10T06:04:27.978Z,1.85
2023-01-10T06:06:54.643Z,1.67
2023-01-10T06:09:21.302Z,1.77
2023-01-10T06:11:47.977Z,1.63
2023-01-10T06:14:19.082Z,1.23
2023-01-10T06:16:46.290Z,1.70
2023-01-10T06:19:12.913Z,1.55
2023-01-10T06:21:39.702Z,1.35
2023-01-10T06:24:06.645Z,1.98
2023-01-10T06:26:33.371Z,2.13
2023-01-10T06:29:00.215Z,1.30
2023-01-10T06:31:27.440Z,1.45
2023-01-10T06:33:56.293Z,2.13
2023-01-10T06:36:23.086Z,1.70
2023-01-10T06:38:49.942Z,2.10
2023-01-10T06:41:16.839Z,1.67
2023-01-10T06:43:45.478Z,1.90
2023-01-10T06:46:12.738Z,1.55
2023-01-10T06:48:39.619Z,1.60
2023-01-10T06:51:06.431Z,1.60
2023-01-10T06:53:33.101Z,3.05
2023-01-10T06:55:59.687Z,9.70
2023-01-10T06:58:26.719Z,9.43
2023-01-10T07:00:53.406Z,7.45
2023-01-10T07:03:20.161Z,5.25
2023-01-10T07:05:47.019Z,2.40
2023-01-10T07:08:13.845Z,5.15
2023-01-10T07:10:41.935Z,3.70
2023-01-10T07:13:09.119Z,2.33
2023-01-10T07:15:36.031Z,1.90
2023-01-10T07:18:02.791Z,2.28
2023-01-10T07:20:29.579Z,2.05
2023-01-10T07:23:00.141Z,2.28
2023-01-10T07:25:27.529Z,2.40
2023-01-10T07:27:57.267Z,3.83
2023-01-10T07:30:25.513Z,2.15
2023-01-10T07:32:55.994Z,2.55
2023-01-10T07:35:23.257Z,1.48
2023-01-10T07:37:50.052Z,1.45
2023-01-10T07:40:17.005Z,1.80
2023-01-10T07:42:43.711Z,1.50
2023-01-10T07:45:10.693Z,1.38
2023-01-10T07:47:37.342Z,1.70
2023-01-10T07:50:04.089Z,1.75
2023-01-10T07:52:30.713Z,1.70
2023-01-10T07:54:57.362Z,2.00
2023-01-10T07:57:24.098Z,1.60
2023-01-10T07:59:50.766Z,1.98
2023-01-10T08:02:17.468Z,1.80
2023-01-10T08:04:44.119Z,1.65
2023-01-10T08:07:10.769Z,1.42
2023-01-10T08:09:37.379Z,1.58
2023-01-10T08:12:04.160Z,1.80
2023-01-10T08:14:30.888Z,2.08
2023-01-10T08:16:57.527Z,1.48
2023-01-10T08:19:24.309Z,2.13
2023-01-10T08:21:51.034Z,1.75
2023-01-10T08:24:17.594Z,1.65
2023-01-10T08:26:44.307Z,1.48
2023-01-10T08:29:11.045Z,1.80
2023-01-10T08:31:37.842Z,1.55
2023-01-10T08:34:04.606Z,1.60
2023-01-10T08:36:31.334Z,1.48
2023-01-10T08:38:58.116Z,1.73
2023-01-10T08:41:24.763Z,1.40
2023-01-10T08:43:51.424Z,1.90
2023-01-10T08:46:20.190Z,1.60
2023-01-10T08:48:50.426Z,1.55
2023-01-10T08:51:17.859Z,1.60
2023-01-10T08:53:44.624Z,1.25
2023-01-10T08:56:11.732Z,1.83
2023-01-10T08:58:38.475Z,1.88
2023-01-10T09:01:08.677Z,1.42
2023-01-10T09:03:35.749Z,1.70
2023-01-10T09:06:02.904Z,1.60
2023-01-10T09:08:29.991Z,1.20
2023-01-10T09:11:02.860Z,1.52
2023-01-10T09:13:29.835Z,1.10
2023-01-10T09:15:57.089Z,1.35
2023-01-10T09:18:23.896Z,1.77
2023-01-10T09:20:50.939Z,1.50
2023-01-10T09:23:20.192Z,1.60
2023-01-10T09:25:47.500Z,1.83
2023-01-10T09:28:14.209Z,1.55
2023-01-10T09:30:41.264Z,1.35
2023-01-10T09:33:08.115Z,1.27
2023-01-10T09:35:36.180Z,1.60
2023-01-10T09:38:03.503Z,1.48
2023-01-10T09:40:39.152Z,1.63
2023-01-10T09:43:12.023Z,1.45
2023-01-10T09:45:58.973Z,1.90
2023-01-10T09:48:28.567Z,1.40
2023-01-10T09:51:10.091Z,1.65
2023-01-10T09:53:38.196Z,1.27
2023-01-10T09:56:06.256Z,1.48
2023-01-10T09:58:34.830Z,1.77
2023-01-10T10:01:10.924Z,1.90
2023-01-10T10:03:40.161Z,1.23
2023-01-10T10:06:12.258Z,1.65
2023-01-10T10:08:40.478Z,1.48
2023-01-10T10:11:07.308Z,1.73
2023-01-10T10:13:41.320Z,1.60
2023-01-10T10:16:17.109Z,1.58
2023-01-10T10:19:03.039Z,1.65
2023-01-10T10:21:41.717Z,1.92
2023-01-10T10:24:19.196Z,1.70
2023-01-10T10:27:08.592Z,1.92
2023-01-10T10:29:35.294Z,2.58
2023-01-10T10:32:31.399Z,1.88
2023-01-10T10:35:03.637Z,3.17
2023-01-10T10:37:39.437Z,2.15
2023-01-10T10:40:07.687Z,1.85
2023-01-10T10:42:37.228Z,1.95
2023-01-10T10:45:05.797Z,1.95
2023-01-10T10:47:33.899Z,1.98
2023-01-10T10:50:16.064Z,1.70
2023-01-10T10:52:43.454Z,1.90
2023-01-10T10:55:15.141Z,1.52
2023-01-10T10:57:55.349Z,1.55
2023-01-10T11:00:26.601Z,1.20
2023-01-10T11:02:55.404Z,1.15
2023-01-10T11:05:27.583Z,1.00
2023-01-10T11:07:57.161Z,1.48
2023-01-10T11:10:37.079Z,1.90
2023-01-10T11:13:16.811Z,1.67
2023-01-10T11:15:47.235Z,1.42
2023-01-10T11:18:16.514Z,1.77
2023-01-10T11:20:47.612Z,1.23
2023-01-10T11:23:22.263Z,1.00
2023-01-10T11:25:50.003Z,1.55
2023-01-10T11:28:18.578Z,1.33
2023-01-10T11:30:48.568Z,1.23
2023-01-10T11:33:41.685Z,1.02
2023-01-10T11:36:09.671Z,1.45
2023-01-10T11:38:36.723Z,1.10
2023-01-10T11:41:03.400Z,1.48
2023-01-10T11:43:34.623Z,1.00
2023-01-10T11:46:05.887Z,1.10
2023-01-10T11:49:06.298Z,1.02
2023-01-10T11:51:36.625Z,1.25
2023-01-10T11:54:17.931Z,1.10
2023-01-10T11:56:54.416Z,1.33
2023-01-10T11:59:21.289Z,1.17
2023-01-10T12:01:59.028Z,1.08
2023-01-10T12:04:26.978Z,1.15
2023-01-10T12:06:54.929Z,1.30
2023-01-10T12:09:36.092Z,0.90
2023-01-10T12:12:11.807Z,1.33
2023-01-10T12:14:38.617Z,1.10
2023-01-10T12:17:05.377Z,1.80
2023-01-10T12:19:32.191Z,1.15
2023-01-10T12:22:00.841Z,1.08
2023-01-10T12:24:30.776Z,1.08
2023-01-10T12:26:59.354Z,1.40
2023-01-10T12:29:28.005Z,1.20
2023-01-10T12:31:56.003Z,0.98
2023-01-10T12:34:25.251Z,1.15
2023-01-10T12:37:10.682Z,1.10
2023-01-10T12:39:40.651Z,1.20
2023-01-10T12:42:25.771Z,1.00
2023-01-10T12:44:58.164Z,0.88
2023-01-10T12:47:24.794Z,1.17
2023-01-10T12:50:00.895Z,1.52
2023-01-10T12:52:47.516Z,1.42
2023-01-10T12:55:15.336Z,1.58
2023-01-10T12:57:43.531Z,1.58
2023-01-10T13:00:24.711Z,2.50
2023-01-10T13:02:53.676Z,3.10
2023-01-10T13:05:22.383Z,2.50
2023-01-10T13:07:49.942Z,2.13
2023-01-10T13:10:18.566Z,2.08
2023-01-10T13:12:47.345Z,1.90
2023-01-10T13:15:17.061Z,2.00
2023-01-10T13:17:46.631Z,1.23
2023-01-10T13:20:16.104Z,1.10
2023-01-10T13:22:43.929Z,1.15
2023-01-10T13:25:19.688Z,1.40
2023-01-10T13:27:46.562Z,1.98
2023-01-10T13:30:26.514Z,1.75
2023-01-10T13:32:57.843Z,1.50
2023-01-10T13:35:25.969Z,1.15
2023-01-10T13:37:54.301Z,1.20
2023-01-10T13:40:23.073Z,1.33
2023-01-10T13:43:21.806Z,1.00
2023-01-10T13:46:08.504Z,1.00
2023-01-10T13:48:35.209Z,1.40
2023-01-10T13:51:18.988Z,0.98
2023-01-10T13:53:57.778Z,1.08
2023-01-10T13:56:35.300Z,1.20
2023-01-10T13:59:17.588Z,1.20
2023-01-10T14:02:07.998Z,1.02
2023-01-10T14:04:37.272Z,1.15
2023-01-10T14:07:06.291Z,0.82
2023-01-10T14:09:38.113Z,1.48
2023-01-10T14:12:07.587Z,1.20
2023-01-10T14:14:34.785Z,0.82
2023-01-10T14:17:13.377Z,1.25
2023-01-10T14:19:40.895Z,0.77
2023-01-10T14:22:21.608Z,0.80
2023-01-10T14:24:51.393Z,0.80
2023-01-10T14:27:18.683Z,0.95
2023-01-10T14:29:47.177Z,0.82
2023-01-10T14:32:30.087Z,1.23
2023-01-10T14:34:57.059Z,0.93
2023-01-10T14:37:32.160Z,1.27
2023-01-10T14:39:59.469Z,0.85
2023-01-10T14:42:27.222Z,0.90
2023-01-10T14:45:02.480Z,1.00
2023-01-10T14:47:30.463Z,1.35
2023-01-10T14:50:06.624Z,1.08
2023-01-10T14:52:33.377Z,0.90
2023-01-10T14:55:13.588Z,0.80
2023-01-10T14:57:40.265Z,1.27
2023-01-10T15:00:17.908Z,0.90
2023-01-10T15:02:45.816Z,1.08
2023-01-10T15:05:17.747Z,0.90
2023-01-10T15:07:44.468Z,0.88
2023-01-10T15:10:25.852Z,1.08
2023-01-10T15:12:54.095Z,1.65
2023-01-10T15:15:23.998Z,0.75
2023-01-10T15:17:51.380Z,0.90
2023-01-10T15:20:20.314Z,0.70
2023-01-10T15:22:48.941Z,0.70
2023-01-10T15:25:18.759Z,0.70
2023-01-10T15:27:46.305Z,1.20
2023-01-10T15:30:18.260Z,2.13
2023-01-10T15:32:45.612Z,1.27
2023-01-10T15:35:17.930Z,1.13
2023-01-10T15:37:55.881Z,1.30
2023-01-10T15:40:29.961Z,0.88
2023-01-10T15:43:15.497Z,1.13
2023-01-10T15:45:42.969Z,1.00
2023-01-10T15:48:25.635Z,1.10
2023-01-10T15:51:11.036Z,1.02
2023-01-10T15:53:49.749Z,1.00
2023-01-10T15:56:19.165Z,1.20
2023-01-10T15:58:46.342Z,0.95
2023-01-10T16:01:14.645Z,0.90
2023-01-10T16:03:46.128Z,0.75
2023-01-10T16:06:24.089Z,1.20
2023-01-10T16:08:52.422Z,0.70
2023-01-10T16:11:43.813Z,0.90
2023-01-10T16:14:10.502Z,0.98
2023-01-10T16:16:37.483Z,0.80
2023-01-10T16:19:04.202Z,1.35
2023-01-10T16:21:36.147Z,0.80
2023-01-10T16:24:03.170Z,1.58
2023-01-10T16:26:29.866Z,1.13
2023-01-10T16:28:56.556Z,0.85
2023-01-10T16:31:23.251Z,0.90
2023-01-10T16:33:50.073Z,1.08
2023-01-10T16:36:18.092Z,0.90
2023-01-10T16:38:44.797Z,1.08
2023-01-10T16:41:30.620Z,0.93
2023-01-10T16:43:57.353Z,0.80
2023-01-10T16:46:24.143Z,1.10
2023-01-10T16:48:52.833Z,1.17
2023-01-10T16:51:24.611Z,1.13
2023-01-10T16:53:51.796Z,1.00
2023-01-10T16:56:20.006Z,1.25
2023-01-10T16:58:50.254Z,1.00
2023-01-10T17:01:19.645Z,1.25
2023-01-10T17:03:47.078Z,1.00
2023-01-10T17:06:14.309Z,1.00
2023-01-10T17:08:41.403Z,1.00
2023-01-10T17:11:10.696Z,1.10
2023-01-10T17:13:41.690Z,0.90
2023-01-10T17:16:08.822Z,1.00
2023-01-10T17:18:37.473Z,1.20
2023-01-10T17:21:05.627Z,2.38
2023-01-10T17:23:32.826Z,1.85
2023-01-10T17:26:03.970Z,3.63
2023-01-10T17:28:31.595Z,1.98
2023-01-10T17:30:58.460Z,1.88
2023-01-10T17:33:25.840Z,2.10
2023-01-10T17:35:53.862Z,1.77
2023-01-10T17:38:21.178Z,2.05
2023-01-10T17:40:48.351Z,1.75
2023-01-10T17:43:15.796Z,1.77
2023-01-10T17:45:43.337Z,1.52
2023-01-10T17:48:10.188Z,1.83
2023-01-10T17:50:36.964Z,1.77
2023-01-10T17:53:06.585Z,1.88
2023-01-10T17:55:33.296Z,1.65
2023-01-10T17:58:00.061Z,1.40
2023-01-10T18:00:27.003Z,1.60
2023-01-10T18:02:53.949Z,2.38
2023-01-10T18:05:21.029Z,12.52
2023-01-10T18:07:47.746Z,5.32
2023-01-10T18:10:14.460Z,3.58
2023-01-10T18:12:43.749Z,2.30
2023-01-10T18:15:10.544Z,1.75
2023-01-10T18:17:37.841Z,2.17
2023-01-10T18:20:05.100Z,2.20
2023-01-10T18:22:50.481Z,2.20
2023-01-10T18:25:17.592Z,2.40
2023-01-10T18:27:50.088Z,2.00
2023-01-10T18:30:21.847Z,2.22
2023-01-10T18:32:49.140Z,2.45
2023-01-10T18:35:16.029Z,1.70
2023-01-10T18:37:42.624Z,1.75
2023-01-10T18:40:09.954Z,1.30
2023-01-10T18:42:36.717Z,1.50
2023-01-10T18:45:04.275Z,1.40
2023-01-10T18:47:31.105Z,2.00
2023-01-10T18:49:57.820Z,1.80
2023-01-10T18:52:25.172Z,1.42
2023-01-10T18:54:54.847Z,1.50
2023-01-10T18:57:21.589Z,1.60
2023-01-10T18:59:48.426Z,1.73
2023-01-10T19:02:15.706Z,1.95
2023-01-10T19:04:42.689Z,2.33
2023-01-10T19:07:16.853Z,1.83
2023-01-10T19:09:43.792Z,1.92
2023-01-10T19:12:10.531Z,2.20
2023-01-10T19:14:37.205Z,1.92
2023-01-10T19:17:03.999Z,1.70
2023-01-10T19:19:30.685Z,1.90
2023-01-10T19:21:57.451Z,1.90
2023-01-10T19:24:25.592Z,1.52
2023-01-10T19:26:52.614Z,1.30
2023-01-10T19:29:19.845Z,1.90
2023-01-10T19:31:48.375Z,1.60
2023-01-10T19:34:15.651Z,1.75
2023-01-10T19:36:42.578Z,1.92
2023-01-10T19:39:09.994Z,1.83
2023-01-10T19:41:37.352Z,2.40
2023-01-10T19:44:15.196Z,2.65
2023-01-10T19:46:44.047Z,2.40
2023-01-10T19:49:13.429Z,2.28
2023-01-10T19:51:40.753Z,2.38
2023-01-10T19:54:08.097Z,2.58
2023-01-10T19:56:35.267Z,2.95
2023-01-10T19:59:02.322Z,2.95
2023-01-10T20:01:29.896Z,2.67
2023-01-10T20:03:57.831Z,2.67
2023-01-10T20:06:26.657Z,2.88
2023-01-10T20:08:59.484Z,2.88
2023-01-10T20:11:26.981Z,3.15
2023-01-10T20:13:53.725Z,2.92
2023-01-10T20:16:21.755Z,3.30
2023-01-10T20:18:49.272Z,2.35
2023-01-10T20:21:17.169Z,2.45
2023-01-10T20:23:44.628Z,2.42
2023-01-10T20:26:12.947Z,2.47
2023-01-10T20:28:40.921Z,2.85
2023-01-10T20:31:08.627Z,2.60
2023-01-10T20:33:35.634Z,2.40
2023-01-10T20:36:06.141Z,2.15
2023-01-10T20:38:34.112Z,2.60
2023-01-10T20:41:02.380Z,2.33
2023-01-10T20:43:29.319Z,2.30
2023-01-10T20:45:56.502Z,2.30
2023-01-10T20:48:25.555Z,2.45
2023-01-10T20:50:52.256Z,2.40
2023-01-10T20:53:18.905Z,2.35
2023-01-10T20:55:56.261Z,2.05
2023-01-10T20:58:25.673Z,3.03
2023-01-10T21:00:53.325Z,1.90
2023-01-10T21:03:19.949Z,2.03
2023-01-10T21:05:53.454Z,2.45
2023-01-10T21:08:20.709Z,2.30
2023-01-10T21:10:47.785Z,2.40
2023-01-10T21:13:14.889Z,2.13
2023-01-10T21:15:43.803Z,2.05
2023-01-10T21:18:11.376Z,2.00
2023-01-10T21:20:44.918Z,1.98
2023-01-10T21:23:12.352Z,1.73
2023-01-10T21:25:39.427Z,1.98
2023-01-10T21:28:09.725Z,1.77
2023-01-10T21:30:36.877Z,1.80
2023-01-10T21:33:03.647Z,1.80
2023-01-10T21:35:30.383Z,1.88
2023-01-10T21:37:57.641Z,2.10
2023-01-10T21:40:24.834Z,1.80
2023-01-10T21:42:52.609Z,1.90
2023-01-10T21:45:21.067Z,1.92
2023-01-10T21:47:50.846Z,1.80
2023-01-10T21:50:17.890Z,1.80
2023-01-10T21:52:44.717Z,2.13
2023-01-10T21:55:13.946Z,2.00
2023-01-10T21:57:40.792Z,1.85
2023-01-10T22:00:07.846Z,1.60
2023-01-10T22:02:38.398Z,1.42
2023-01-10T22:05:05.369Z,1.42
2023-01-10T22:07:32.067Z,1.95
2023-01-10T22:09:58.824Z,1.63
2023-01-10T22:12:25.590Z,1.52
2023-01-10T22:14:52.300Z,1.73
2023-01-10T22:17:18.944Z,1.90
2023-01-10T22:19:45.662Z,1.80
2023-01-10T22:22:13.970Z,1.85
2023-01-10T22:24:44.345Z,1.83
2023-01-10T22:27:11.081Z,1.77
2023-01-10T22:29:37.807Z,1.80
2023-01-10T22:32:04.631Z,1.50
2023-01-10T22:34:31.305Z,1.70
2023-01-10T22:36:57.919Z,1.80
2023-01-10T22:39:24.696Z,1.50
2023-01-10T22:41:53.604Z,1.60
2023-01-10T22:44:24.317Z,1.58
2023-01-10T22:46:51.695Z,1.30
2023-01-10T22:49:18.543Z,1.83
2023-01-10T22:51:45.204Z,1.60
2023-01-10T22:54:13.289Z,1.42
2023-01-10T22:56:40.226Z,1.50
2023-01-10T22:59:07.766Z,1.35
2023-01-10T23:01:34.354Z,1.25
2023-01-10T23:04:01.086Z,1.50
2023-01-10T23:06:27.862Z,1.42
2023-01-10T23:08:54.472Z,1.30
2023-01-10T23:11:22.184Z,1.17
2023-01-10T23:13:49.188Z,1.48
2023-01-10T23:16:21.157Z,1.63
2023-01-10T23:18:50.756Z,1.55
2023-01-10T23:21:17.372Z,1.75
2023-01-10T23:23:44.025Z,1.35
2023-01-10T23:26:11.597Z,1.33
2023-01-10T23:28:44.588Z,1.95
2023-01-10T23:31:11.240Z,1.38
2023-01-10T23:33:37.982Z,1.80
2023-01-10T23:36:04.857Z,1.33
2023-01-10T23:38:32.732Z,1.40
2023-01-10T23:40:59.427Z,1.60
2023-01-10T23:43:26.072Z,1.65
2023-01-10T23:45:53.177Z,1.45
2023-01-10T23:48:20.350Z,1.30
2023-01-10T23:50:48.639Z,1.30
2023-01-10T23:53:15.785Z,1.15
2023-01-10T23:55:42.553Z,1.20
2023-01-10T23:58:09.233Z,1.05
